Flight Track Log - Related Links

Times and Time Zones

All times are in EDT time to prevent confusion due to time zone crossing. See the N306UP flight status page for this flight to view local times or setup timezone preferences in your user account.

Time Position Orientation Groundspeed Altitude Reporting Facility
EDT Latitude Longitude Course Direction KTS MPH feet Rate Location/Type
Tue 11:45:49 PM 33.4270 -112.0380 246° West 175 201 3,000  Level FlightAware ADS-B
Tue 11:46:19 PM 33.4170 -112.0670 248° West 213 245 4,000 2,400 Climbing FlightAware ADS-B
Tue 11:46:44 PM 33.4070 -112.0970 248° West 238 274 5,200 2,836 Climbing FlightAware ADS-B
Tue 11:47:14 PM 33.3950 -112.1330 248° West 261 300 6,600 3,382 Climbing FlightAware ADS-B
Tue 11:47:39 PM 33.3830 -112.1690 248° West 266 306 8,300 3,686 Climbing FlightAware ADS-B
Tue 11:48:24 PM 33.3640 -112.2320 250° West 279 321 10,900 2,925 Climbing FlightAware ADS-B
Tue 11:48:59 PM 33.3740 -112.2890 282° West 326 375 12,200 3,388 Climbing FlightAware ADS-B
Tue 11:49:49 PM 33.4030 -112.3780 291° West 346 398 15,700 4,333 Climbing FlightAware ADS-B
Tue 11:50:29 PM 33.4210 -112.4500 287° West 352 405 18,700 3,812 Climbing FlightAware ADS-B
Tue 11:51:14 PM 33.4300 -112.5340 277° West 371 427 21,100 3,529 Climbing FlightAware ADS-B
Tue 11:51:54 PM 33.4380 -112.6250 276° West 384 442 23,700 3,300 Climbing FlightAware ADS-B
Tue 11:52:34 PM 33.4450 -112.7100 276° West 401 461 25,500 2,824 Climbing FlightAware ADS-B
Tue 11:53:19 PM 33.4530 -112.8100 276° West 406 467 27,700 2,753 Climbing FlightAware ADS-B
Tue 11:53:59 PM 33.4670 -112.8960 281° West 413 475 29,400 1,840 Climbing FlightAware ADS-B
Tue 11:54:34 PM 33.4830 -112.9760 284° West 427 491 30,000 424 Climbing FlightAware ADS-B
Tue 11:55:24 PM 33.5060 -113.0940 283° West 425 489 30,000  Level FlightAware ADS-B
Tue 11:56:04 PM 33.5220 -113.1800 283° West 419 482 30,000  Level FlightAware ADS-B
Tue 11:56:44 PM 33.5400 -113.2760 283° West 420 483 30,000  Level FlightAware ADS-B
Tue 11:57:24 PM 33.5570 -113.3640 283° West 418 481 30,000  Level FlightAware ADS-B
Tue 11:58:09 PM 33.5730 -113.4560 282° West 418 481 30,000  Level FlightAware ADS-B
Tue 11:58:49 PM 33.5870 -113.5330 282° West 418 481 30,000  Level FlightAware ADS-B
Tue 11:59:29 PM 33.6000 -113.6100 281° West 418 481 30,000  Level FlightAware ADS-B
Wed 12:00:09 AM 33.6140 -113.6870 282° West 418 481 30,000  Level FlightAware ADS-B
Wed 12:00:59 AM 33.6310 -113.7840 282° West 418 481 30,000  Level FlightAware ADS-B
Wed 12:01:42 AM 33.6636 -113.9375 282° West 426 490 30,000  Level Albuquerque Center
Wed 12:02:43 AM 33.6892 -114.0764 283° West 428 493 30,000  Level Albuquerque Center
Wed 12:03:44 AM 33.7147 -114.2156 282° West 428 493 30,000  Level Albuquerque Center
Wed 12:04:45 AM 33.7381 -114.3508 282° West 427 491 30,000  Level Albuquerque Center
Wed 12:05:46 AM 33.7681 -114.5161 282° West 424 488 30,000  Level Albuquerque Center
Wed 12:06:59 AM 33.7825 -114.6711 276° West 426 490 30,000 -44 Level Los Angeles Center
Wed 12:08:01 AM 33.7900 -114.8125 274° West 427 491 29,900  Descending Los Angeles Center
Wed 12:09:02 AM 33.7975 -114.9539 274° West 425 489 30,000 15 Climbing Los Angeles Center
Wed 12:14:44 AM 33.8400 -115.7710 274° West 412 474 30,000 -16 Level FlightAware ADS-B
Wed 12:15:24 AM 33.8440 -115.8580 273° West 409 471 29,900 -505 Descending FlightAware ADS-B
Wed 12:16:19 AM 33.8500 -115.9840 273° West 390 449 29,200 -505 Descending FlightAware ADS-B
Wed 12:16:59 AM 33.8530 -116.0640 273° West 388 447 29,100 -75 Descending FlightAware ADS-B
Wed 12:17:39 AM 33.8560 -116.1380 273° West 388 447 29,100  Level FlightAware ADS-B
Wed 12:18:19 AM 33.8590 -116.2110 273° West 388 447 29,100  Level FlightAware ADS-B
Wed 12:19:09 AM 33.8630 -116.3030 273° West 388 447 29,100 -4,933 Level FlightAware ADS-B
Wed 12:19:49 AM 33.8700 -116.4190 274° West 372 428 21,700 -6,424 Descending FlightAware ADS-B
Wed 12:20:34 AM 33.8740 -116.5130 273° West 361 415 20,000 -2,175 Descending FlightAware ADS-B
Wed 12:21:09 AM 33.8770 -116.5820 273° West 354 407 18,800 -2,118 Descending FlightAware ADS-B
Wed 12:21:59 AM 33.8820 -116.6780 274° West 352 405 17,000 -2,133 Descending FlightAware ADS-B
Wed 12:22:39 AM 33.8850 -116.7550 273° West 354 407 15,600 -2,100 Descending FlightAware ADS-B
Wed 12:23:19 AM 33.8890 -116.8350 273° West 347 399 14,200 -1,341 Descending FlightAware ADS-B
Wed 12:24:04 AM 33.8970 -116.9200 276° West 319 367 13,700 -1,200 Descending FlightAware ADS-B
Wed 12:24:44 AM 33.9170 -116.9860 290° West 299 344 12,500 -1,694 Descending FlightAware ADS-B
Wed 12:25:29 AM 33.9400 -117.0490 294° West 267 307 11,300 -2,118 Descending FlightAware ADS-B
Wed 12:26:09 AM 33.9600 -117.1020 294° West 273 314 9,500 -2,585 Descending FlightAware ADS-B
Wed 12:26:34 AM 33.9730 -117.1390 293° West 273 314 8,500 -2,182 Descending FlightAware ADS-B
Wed 12:27:04 AM 33.9890 -117.1800 295° West 267 307 7,500 -1,700 Descending FlightAware ADS-B
Wed 12:27:34 AM 34.0040 -117.2220 293° West 251 289 6,800 -1,333 Descending FlightAware ADS-B
Wed 12:27:49 AM 34.0100 -117.2380 294° West 240 276 6,500 -1,500 Descending FlightAware ADS-B
Wed 12:28:14 AM 34.0210 -117.2680 294° West 228 262 5,800 -1,855 Descending FlightAware ADS-B
Wed 12:28:44 AM 34.0340 -117.3050 293° West 227 261 4,800 -1,418 Descending FlightAware ADS-B
Wed 12:29:09 AM 34.0440 -117.3310 295° West 213 245 4,500 -600 Descending FlightAware ADS-B
Wed 12:29:24 AM 34.0500 -117.3460 296° West 198 228 4,400 -400 Descending FlightAware ADS-B
Wed 12:29:54 AM 34.0550 -117.3780 281° West 183 211 4,200 -655 Descending FlightAware ADS-B
Wed 12:30:19 AM 34.0550 -117.4010 270° West 182 209 3,800 -918 Descending FlightAware ADS-B
Wed 12:31:19 AM 34.0550 -117.4600 270° West 172 198 2,900 -900 Descending FlightAware ADS-B
Wed 12:31:39 AM 34.0550 -117.4790 270° West 155 178 2,600 -500 Descending FlightAware ADS-B
Wed 12:32:19 AM 34.0550 -117.5100 270° West 155 178 2,400 -730 Descending FlightAware ADS-B
Wed 12:33:34 AM 34.0564 -117.5644 270° West 146 168 1,200 -574 Descending Los Angeles Center
Wed 12:34:35 AM 34.0556 -117.6081 269° West 143 165 1,100 -98 Descending Los Angeles Center
Wed 12:36:00 AM 34.0560 -117.6012 86° East  Level Estimated
Wed 12:43:00 AM 34.0560 -117.6012 270° West  Level Estimated

Login

Don't have an account? Register now (free) for customized features, flight alerts, and more!